Mackenzie, Canada
Current Conditions -  °F | °C
As of 9:05 AM on Friday 21 Nov 2014 (Local Time) from CYZY Reporting Station
Overcast Overcast  
Wind Chill: 28°   Ceiling: 3200
Heat Index: 34°   Visibility: 9mi
Dew Point: 34°   Wind: 7mph
Humidity: 100%   Direction: 150°SSE
Pressure: 29.48"   Gusts: NA
Location:  55.33°N, 123.09°W
Report Text: CYZY 211705Z AUTO 15006KT 9SM SCT021 BKN032 BKN048 OVC065 01/01 A2948 RMK SLP012
Loading
Personal Weather Stations






























Interactive Weather Map New forecast layout! Learn more

10-Day Weather Forecast

Advertisements
Track Severe Weather on mobile